Etusivu
METAR-TAF:

METAR-TAF

Lentoasemat :

Malmö, Ruotsi

Malmön lentoasema

Leveyspiiri: 55-33N, Pituuspiiri: 013-22E, korkeus merenpinnasta: 106 m

Tämänhetkinen sää

Tämä raportti tehtiin 16 minuuttia sitten, kello 09.50 UTC
Tuuli 8 kn etelästä/lounaasta
Lämpötila 21°C
Kosteus 60%
Ilmanpaine 1023 hPa
Näkyvyys 10 km tai enemmän
ei pilviä alle 1500 m:ssä eikä cumulonimbus-pilviä

METAR: ESMS 270950Z 21008KT CAVOK 21/13 Q1023

Aika: 12:06 (10:06 UTC)

Sääennuste

Tämä raportti tehtiin 4 tuntia ja 55 minuuttia sitten, kello 05.11 UTC
Ennuste voimassa 27. päivästä klo 06 UTC - 28. päivään klo 06 UTC
Tuuli 10 kn etelästä
Näkyvyys 10 km tai enemmän
ei pilviä alle 1500 m:ssä eikä cumulonimbus-pilviä

TAF: ESMS 270511Z 2706/2806 19010KT CAVOK

Säähavainnot ja -ennusteet yli 4000 lentoasemalta (METAR- ja TAF-raportit).

Käytössä olevat sääasemat on merkitty karttaan keltaisilla ja punaisilla pisteillä.

Aseta hiiri pisteen päälle nähdäksesi sääaseman nimen.

Klikkaa sitten nähdäksesi säähavainnot ja -ennusteet.

Kartan vaihtaminen: klikkaa mustalla rastilla varustettuja vihreitä pisteitä, niin voit zoomata sisään; viivalla varustettua vihreää pistettä, niin voit zoomata ulos tai vihreitä nuolia, niin pääset viereisille kartoille.


METAR-TAF: